createdAt,value
2017-10-20T00:01:38.466Z,104.95
2017-10-20T00:04:08.241Z,116.85
2017-10-20T00:06:37.850Z,130.93
2017-10-20T00:09:07.614Z,109.68
2017-10-20T00:11:37.403Z,103.05
2017-10-20T00:14:07.159Z,100.53
2017-10-20T00:16:36.954Z,76.62
2017-10-20T00:19:06.705Z,89.40
2017-10-20T00:21:36.464Z,84.18
2017-10-20T00:24:06.224Z,79.47
2017-10-20T00:26:35.976Z,88.32
2017-10-20T00:29:05.750Z,69.50
2017-10-20T00:31:35.518Z,75.57
2017-10-20T00:34:04.930Z,63.22
2017-10-20T00:36:34.665Z,64.75
2017-10-20T00:39:03.652Z,136.73
2017-10-20T00:41:33.406Z,199.00
2017-10-20T00:44:03.456Z,209.30
2017-10-20T00:46:33.210Z,235.93
2017-10-20T00:49:02.979Z,157.90
2017-10-20T00:51:32.739Z,272.17
2017-10-20T00:54:02.354Z,337.77
2017-10-20T00:56:31.762Z,337.67
2017-10-20T00:59:01.165Z,217.32
2017-10-20T01:01:30.923Z,163.62
2017-10-20T01:04:00.522Z,226.95
2017-10-20T01:06:30.279Z,281.50
2017-10-20T01:09:00.072Z,283.70
2017-10-20T01:11:29.862Z,310.58
2017-10-20T01:13:59.136Z,374.52
2017-10-20T01:16:28.934Z,445.02
2017-10-20T01:18:58.711Z,254.82
2017-10-20T01:21:28.758Z,220.07
2017-10-20T01:23:57.984Z,202.52
2017-10-20T01:26:27.248Z,255.50
2017-10-20T01:28:56.464Z,328.10
2017-10-20T01:31:26.216Z,328.67
2017-10-20T01:33:55.640Z,359.35
2017-10-20T01:36:25.083Z,349.05
2017-10-20T01:38:54.861Z,324.65
2017-10-20T01:41:24.305Z,262.20
2017-10-20T01:43:53.717Z,202.90
2017-10-20T01:46:23.138Z,176.55
2017-10-20T01:48:52.727Z,163.62
2017-10-20T01:51:22.166Z,173.82
2017-10-20T01:53:51.586Z,167.90
2017-10-20T01:56:21.384Z,181.18
2017-10-20T01:58:51.008Z,207.75
2017-10-20T02:01:20.773Z,226.18
2017-10-20T02:03:50.050Z,229.98
2017-10-20T02:06:19.812Z,187.05
2017-10-20T02:08:49.581Z,201.30
2017-10-20T02:11:19.342Z,200.30
2017-10-20T02:13:49.115Z,172.55
2017-10-20T02:16:18.566Z,154.23
2017-10-20T02:18:48.332Z,161.95
2017-10-20T02:21:17.963Z,116.93
2017-10-20T02:23:47.737Z,158.93
2017-10-20T02:26:17.506Z,144.43
2017-10-20T02:28:47.284Z,142.85
2017-10-20T02:31:17.098Z,139.23
2017-10-20T02:33:46.850Z,136.07
2017-10-20T02:36:16.696Z,162.77
2017-10-20T02:38:46.450Z,166.07
2017-10-20T02:41:16.209Z,156.25
2017-10-20T02:43:45.989Z,148.40
2017-10-20T02:46:15.760Z,154.45
2017-10-20T02:48:45.171Z,140.02
2017-10-20T02:51:14.595Z,165.75
2017-10-20T02:53:44.010Z,151.27
2017-10-20T02:56:13.828Z,160.40
2017-10-20T02:58:43.625Z,150.68
2017-10-20T03:01:13.212Z,167.60
2017-10-20T03:03:42.966Z,133.48
2017-10-20T03:06:12.749Z,150.23
2017-10-20T03:08:42.798Z,130.12
2017-10-20T03:11:12.635Z,120.95
2017-10-20T03:13:42.411Z,128.27
2017-10-20T03:16:12.039Z,109.55
2017-10-20T03:18:41.844Z,123.75
2017-10-20T03:21:12.186Z,132.93
2017-10-20T03:23:41.825Z,138.18
2017-10-20T03:26:11.595Z,134.95
2017-10-20T03:28:41.377Z,117.13
2017-10-20T03:31:11.144Z,118.78
2017-10-20T03:33:40.910Z,122.93
2017-10-20T03:36:11.534Z,117.00
2017-10-20T03:38:41.309Z,123.43
2017-10-20T03:41:11.094Z,118.97
2017-10-20T03:43:40.854Z,110.85
2017-10-20T03:46:10.609Z,109.78
2017-10-20T03:48:40.388Z,92.70
2017-10-20T03:51:10.125Z,96.70
2017-10-20T03:53:39.701Z,133.25
2017-10-20T03:56:09.305Z,123.45
2017-10-20T03:58:38.872Z,101.70
2017-10-20T04:01:08.959Z,105.35
2017-10-20T04:03:38.229Z,117.57
2017-10-20T04:06:08.016Z,104.07
2017-10-20T04:08:37.849Z,100.82
2017-10-20T04:11:07.608Z,128.82
2017-10-20T04:13:37.386Z,134.35
2017-10-20T04:16:07.142Z,109.03
2017-10-20T04:18:36.893Z,103.20
2017-10-20T04:21:06.461Z,94.18
2017-10-20T04:23:36.206Z,94.00
2017-10-20T04:26:05.962Z,99.80
2017-10-20T04:28:35.776Z,99.68
2017-10-20T04:31:05.357Z,114.22
2017-10-20T04:33:35.369Z,116.68
2017-10-20T04:36:05.116Z,97.62
2017-10-20T04:38:34.866Z,113.82
2017-10-20T04:41:04.610Z,112.82
2017-10-20T04:43:34.365Z,96.47
2017-10-20T04:46:04.253Z,94.85
2017-10-20T04:48:34.049Z,99.28
2017-10-20T04:51:03.778Z,92.78
2017-10-20T04:53:33.595Z,88.20
2017-10-20T04:56:03.391Z,105.68
2017-10-20T04:58:33.911Z,106.00
2017-10-20T05:01:03.692Z,90.87
2017-10-20T05:03:33.478Z,94.22
2017-10-20T05:06:03.233Z,97.40
2017-10-20T05:08:33.039Z,99.22
2017-10-20T05:11:02.789Z,86.10
2017-10-20T05:13:32.546Z,107.45
2017-10-20T05:16:02.458Z,91.63
2017-10-20T05:18:32.210Z,92.88
2017-10-20T05:21:02.075Z,104.05
2017-10-20T05:23:31.831Z,96.85
2017-10-20T05:26:03.294Z,98.60
2017-10-20T05:28:33.106Z,89.90
2017-10-20T05:31:02.875Z,78.47
2017-10-20T05:33:33.361Z,79.18
2017-10-20T05:36:03.110Z,73.20
2017-10-20T05:38:32.899Z,77.68
2017-10-20T05:41:03.292Z,59.28
2017-10-20T05:43:35.006Z,61.80
2017-10-20T05:46:05.497Z,60.85
2017-10-20T05:48:36.237Z,54.65
2017-10-20T05:51:06.764Z,60.28
2017-10-20T05:53:36.526Z,58.30
2017-10-20T05:56:06.292Z,60.90
2017-10-20T05:58:36.704Z,56.55
2017-10-20T06:01:06.747Z,61.80
2017-10-20T06:03:36.561Z,56.83
2017-10-20T06:06:06.821Z,48.35
2017-10-20T06:08:36.602Z,64.37
2017-10-20T06:11:06.695Z,65.82
2017-10-20T06:13:36.434Z,48.72
2017-10-20T06:16:06.220Z,56.55
2017-10-20T06:18:36.813Z,56.92
2017-10-20T06:21:07.596Z,52.40
2017-10-20T06:23:38.009Z,52.08
2017-10-20T06:26:08.796Z,53.08
2017-10-20T06:28:39.041Z,53.95
2017-10-20T06:31:09.141Z,52.88
2017-10-20T06:33:39.565Z,52.05
2017-10-20T06:36:09.610Z,50.75
2017-10-20T06:38:39.653Z,62.70
2017-10-20T06:41:09.316Z,49.22
2017-10-20T06:43:40.011Z,48.87
2017-10-20T06:46:10.978Z,55.12
2017-10-20T06:48:41.332Z,60.10
2017-10-20T06:51:11.545Z,50.63
2017-10-20T06:53:41.880Z,52.45
2017-10-20T06:56:11.823Z,49.47
2017-10-20T06:58:42.571Z,53.80
2017-10-20T07:01:12.826Z,60.17
2017-10-20T07:03:42.949Z,57.50
2017-10-20T07:06:13.350Z,59.45
2017-10-20T07:08:43.608Z,53.60
2017-10-20T07:11:15.216Z,59.15
2017-10-20T07:13:46.659Z,53.50
2017-10-20T07:16:17.399Z,57.22
2017-10-20T07:21:55.586Z,64.55
2017-10-20T07:24:27.286Z,62.80
2017-10-20T07:26:57.336Z,61.03
2017-10-20T07:29:27.211Z,56.50
2017-10-20T07:31:56.753Z,61.03
2017-10-20T07:34:26.436Z,63.65
2017-10-20T07:36:56.200Z,66.80
2017-10-20T07:39:26.209Z,64.12
2017-10-20T07:41:55.957Z,71.97
2017-10-20T07:44:25.810Z,55.80
2017-10-20T07:46:55.437Z,63.58
2017-10-20T07:49:25.186Z,68.32
2017-10-20T07:51:54.958Z,61.92
2017-10-20T07:54:24.715Z,70.75
2017-10-20T07:56:54.464Z,85.12
2017-10-20T07:59:24.245Z,78.87
2017-10-20T08:01:54.016Z,79.70
2017-10-20T08:04:23.809Z,98.50
2017-10-20T08:06:53.583Z,93.25
2017-10-20T08:09:23.346Z,109.50
2017-10-20T08:11:53.138Z,96.50
2017-10-20T08:14:22.877Z,102.20
2017-10-20T08:16:52.712Z,87.95
2017-10-20T08:19:22.484Z,74.43
2017-10-20T08:21:52.335Z,91.95
2017-10-20T08:24:22.517Z,86.22
2017-10-20T08:26:52.526Z,91.57
2017-10-20T08:29:22.294Z,78.60
2017-10-20T08:31:52.106Z,85.47
2017-10-20T08:34:21.909Z,71.87
2017-10-20T08:36:52.006Z,76.60
2017-10-20T08:39:21.765Z,75.65
2017-10-20T08:41:51.525Z,71.43
2017-10-20T08:44:21.307Z,71.70
2017-10-20T08:46:51.095Z,78.53
2017-10-20T08:49:20.853Z,76.20
2017-10-20T08:51:50.614Z,75.55
2017-10-20T08:54:24.962Z,80.53
2017-10-20T08:56:55.119Z,63.97
2017-10-20T08:59:24.925Z,59.83
2017-10-20T09:01:54.674Z,58.38
2017-10-20T09:04:24.475Z,66.22
2017-10-20T09:06:54.250Z,57.85
2017-10-20T09:09:24.019Z,64.55
2017-10-20T09:11:54.654Z,59.92
2017-10-20T09:14:24.495Z,65.30
2017-10-20T09:16:54.319Z,56.90
2017-10-20T09:19:24.464Z,59.30
2017-10-20T09:21:54.222Z,55.20
2017-10-20T09:24:34.741Z,55.15
2017-10-20T09:27:05.862Z,59.15
2017-10-20T09:29:35.625Z,51.50
2017-10-20T09:32:05.393Z,59.08
2017-10-20T09:34:35.184Z,63.28
2017-10-20T09:37:04.965Z,59.45
2017-10-20T09:39:34.740Z,59.50
2017-10-20T09:42:04.285Z,67.73
2017-10-20T09:44:34.076Z,69.65
2017-10-20T09:47:04.139Z,72.37
2017-10-20T09:49:34.033Z,73.15
2017-10-20T09:52:03.921Z,78.82
2017-10-20T09:54:33.805Z,90.90
2017-10-20T09:57:03.614Z,91.25
2017-10-20T09:59:33.052Z,106.37
2017-10-20T10:02:02.864Z,105.20
2017-10-20T10:04:32.651Z,108.50
2017-10-20T10:07:02.429Z,111.78
2017-10-20T10:09:32.597Z,125.32
2017-10-20T10:12:02.860Z,163.55
2017-10-20T10:14:32.664Z,182.02
2017-10-20T10:17:02.437Z,225.95
2017-10-20T10:19:32.210Z,245.27
2017-10-20T10:22:02.028Z,230.05
2017-10-20T10:24:31.798Z,204.40
2017-10-20T10:27:01.591Z,221.20
2017-10-20T10:29:31.595Z,195.10
2017-10-20T10:32:01.354Z,165.68
2017-10-20T10:34:31.142Z,237.00
2017-10-20T10:37:00.905Z,159.20
2017-10-20T10:39:30.716Z,174.60
2017-10-20T10:42:00.508Z,153.50
2017-10-20T10:44:30.356Z,210.88
2017-10-20T10:47:00.180Z,227.35
2017-10-20T10:49:30.720Z,162.32
2017-10-20T10:52:00.473Z,167.70
2017-10-20T10:54:29.941Z,160.90
2017-10-20T10:56:59.531Z,168.40
2017-10-20T10:59:28.854Z,152.17
2017-10-20T11:01:58.334Z,171.43
2017-10-20T11:04:28.126Z,177.52
2017-10-20T11:07:09.034Z,172.50
2017-10-20T11:09:49.634Z,176.13
2017-10-20T11:12:42.453Z,161.80
2017-10-20T11:15:11.634Z,151.97
2017-10-20T11:17:41.216Z,157.17
2017-10-20T11:20:10.730Z,128.23
2017-10-20T11:22:40.205Z,141.83
2017-10-20T11:25:09.710Z,147.67
2017-10-20T11:27:39.205Z,169.93
2017-10-20T11:30:08.833Z,158.07
2017-10-20T11:32:38.625Z,150.98
2017-10-20T11:35:08.400Z,152.18
2017-10-20T11:37:37.520Z,144.10
2017-10-20T11:40:08.236Z,165.87
2017-10-20T11:42:38.002Z,150.52
2017-10-20T11:45:07.772Z,155.50
2017-10-20T11:47:37.605Z,154.60
2017-10-20T11:50:07.425Z,152.98
2017-10-20T11:52:37.181Z,158.95
2017-10-20T11:55:06.979Z,149.57
2017-10-20T11:57:36.743Z,147.18
2017-10-20T12:00:06.030Z,158.05
2017-10-20T12:02:35.402Z,163.73
2017-10-20T12:05:04.779Z,153.47
2017-10-20T12:07:34.272Z,153.13
2017-10-20T12:10:03.923Z,162.97
2017-10-20T12:12:33.767Z,160.30
2017-10-20T12:15:03.297Z,159.60
2017-10-20T12:17:32.490Z,154.53
2017-10-20T12:20:01.975Z,157.53
2017-10-20T12:22:31.455Z,149.80
2017-10-20T12:25:00.946Z,153.50
2017-10-20T12:27:30.444Z,140.40
2017-10-20T12:30:00.255Z,151.53
2017-10-20T12:32:29.718Z,149.53
2017-10-20T12:34:59.193Z,146.10
2017-10-20T12:37:32.477Z,142.80
2017-10-20T12:40:02.046Z,151.23
2017-10-20T12:42:34.756Z,142.43
2017-10-20T12:45:04.236Z,138.20
2017-10-20T12:47:33.797Z,137.37
2017-10-20T12:50:03.269Z,139.53
2017-10-20T12:52:32.825Z,127.03
2017-10-20T12:55:02.339Z,141.50
2017-10-20T12:57:31.837Z,139.67
2017-10-20T13:00:01.407Z,144.30
2017-10-20T13:02:30.887Z,140.43
2017-10-20T13:05:00.028Z,133.57
2017-10-20T13:07:29.500Z,131.27
2017-10-20T13:09:58.983Z,129.50
2017-10-20T13:12:28.453Z,129.77
2017-10-20T13:14:57.945Z,124.10
2017-10-20T13:17:27.852Z,122.17
2017-10-20T13:19:57.244Z,114.60
2017-10-20T13:22:26.999Z,124.70
2017-10-20T13:24:56.509Z,114.80
2017-10-20T13:27:26.017Z,117.80
2017-10-20T13:29:55.151Z,113.40
2017-10-20T13:32:24.720Z,112.80
2017-10-20T13:34:54.216Z,111.77
2017-10-20T13:37:23.689Z,112.80
2017-10-20T13:39:53.008Z,105.00
2017-10-20T13:42:22.480Z,108.63
2017-10-20T13:44:51.961Z,104.07
2017-10-20T13:47:21.439Z,108.10
2017-10-20T13:49:51.626Z,111.03
2017-10-20T13:52:21.134Z,121.73
2017-10-20T13:54:50.621Z,113.03
2017-10-20T13:57:19.945Z,115.07
2017-10-20T13:59:49.947Z,105.73
2017-10-20T14:02:19.498Z,122.20
2017-10-20T14:04:48.994Z,116.30
2017-10-20T14:07:18.551Z,119.13
2017-10-20T14:09:48.040Z,126.53
2017-10-20T14:12:17.529Z,126.13
2017-10-20T14:14:46.982Z,124.73
2017-10-20T14:17:16.473Z,121.80
2017-10-20T14:19:45.974Z,126.80
2017-10-20T14:22:15.544Z,126.53
2017-10-20T14:24:44.901Z,132.13
2017-10-20T14:27:14.411Z,128.87
2017-10-20T14:29:44.590Z,128.13
2017-10-20T14:32:13.888Z,126.70
2017-10-20T14:34:43.358Z,136.50
2017-10-20T14:37:12.894Z,140.67
2017-10-20T14:39:42.399Z,136.03
2017-10-20T14:42:11.919Z,133.43
2017-10-20T14:44:41.418Z,136.60
2017-10-20T14:47:11.531Z,145.23
2017-10-20T14:49:41.112Z,138.53
2017-10-20T14:52:10.586Z,134.77
2017-10-20T14:54:40.083Z,143.37
2017-10-20T14:57:09.627Z,135.17
2017-10-20T14:59:39.142Z,144.60
2017-10-20T15:02:08.653Z,148.07
2017-10-20T15:04:38.190Z,143.87
2017-10-20T15:07:07.683Z,136.33
2017-10-20T15:09:37.205Z,145.00
2017-10-20T15:12:06.725Z,143.87
2017-10-20T15:14:36.215Z,137.43
2017-10-20T15:17:05.722Z,109.20
2017-10-20T15:19:35.342Z,131.33
2017-10-20T15:22:05.302Z,129.77
2017-10-20T15:24:34.819Z,133.03
2017-10-20T15:27:04.326Z,135.77
2017-10-20T15:29:33.830Z,132.47
2017-10-20T15:32:03.320Z,126.57
2017-10-20T15:34:33.158Z,120.97
2017-10-20T15:37:02.622Z,117.87
2017-10-20T15:39:32.130Z,130.23
2017-10-20T15:42:01.648Z,157.70
2017-10-20T15:44:31.437Z,139.27
2017-10-20T15:47:01.181Z,127.10
2017-10-20T15:49:31.334Z,139.05
2017-10-20T15:52:01.354Z,137.12
2017-10-20T15:54:31.131Z,146.45
2017-10-20T15:57:00.930Z,150.62
2017-10-20T15:59:30.569Z,147.02
2017-10-20T16:02:00.392Z,150.98
2017-10-20T16:04:30.174Z,161.62
2017-10-20T16:06:59.963Z,148.32
2017-10-20T16:09:29.743Z,153.80
2017-10-20T16:11:59.533Z,158.77
2017-10-20T16:14:29.307Z,138.10
2017-10-20T16:16:59.106Z,165.85
2017-10-20T16:19:28.900Z,160.88
2017-10-20T16:21:58.675Z,161.65
2017-10-20T16:24:28.438Z,157.48
2017-10-20T16:26:58.196Z,151.37
2017-10-20T16:29:28.002Z,149.73
2017-10-20T16:31:57.773Z,141.40
2017-10-20T16:34:27.569Z,145.90
2017-10-20T16:36:57.333Z,179.95
2017-10-20T16:39:27.162Z,152.23
2017-10-20T16:41:56.750Z,162.40
2017-10-20T16:44:26.523Z,152.57
2017-10-20T16:46:56.360Z,142.73
2017-10-20T16:49:26.110Z,141.10
2017-10-20T16:51:55.862Z,152.35
2017-10-20T16:54:25.637Z,143.77
2017-10-20T16:56:55.379Z,133.57
2017-10-20T16:59:25.144Z,151.98
2017-10-20T17:01:54.907Z,120.35
2017-10-20T17:04:24.682Z,126.47
2017-10-20T17:06:54.788Z,137.75
2017-10-20T17:09:24.648Z,127.57
2017-10-20T17:11:54.425Z,130.65
2017-10-20T17:14:24.251Z,150.70
2017-10-20T17:16:54.023Z,151.00
2017-10-20T17:19:23.805Z,146.70
2017-10-20T17:21:53.576Z,157.55
2017-10-20T17:24:23.350Z,149.73
2017-10-20T17:26:53.101Z,136.48
2017-10-20T17:29:22.960Z,148.25
2017-10-20T17:31:52.537Z,149.05
2017-10-20T17:34:26.133Z,130.40
2017-10-20T17:36:55.965Z,140.57
2017-10-20T17:39:25.742Z,159.40
2017-10-20T17:41:55.519Z,146.60
2017-10-20T17:44:25.301Z,153.12
2017-10-20T17:46:55.966Z,146.60
2017-10-20T17:49:25.770Z,151.43
2017-10-20T17:51:55.569Z,161.77
2017-10-20T17:54:25.505Z,152.95
2017-10-20T17:56:55.271Z,150.25
2017-10-20T17:59:25.071Z,145.30
2017-10-20T18:01:54.944Z,152.62
2017-10-20T18:04:24.611Z,147.43
2017-10-20T18:06:54.405Z,154.30
2017-10-20T18:09:24.207Z,166.35
2017-10-20T18:11:53.986Z,159.23
2017-10-20T18:14:23.772Z,156.05
2017-10-20T18:16:53.587Z,147.70
2017-10-20T18:19:23.387Z,171.55
2017-10-20T18:21:53.186Z,168.07
2017-10-20T18:24:22.784Z,178.38
2017-10-20T18:26:52.554Z,183.77
2017-10-20T18:29:22.373Z,166.57
2017-10-20T18:31:52.134Z,190.00
2017-10-20T18:34:21.894Z,206.05
2017-10-20T18:36:51.697Z,193.62
2017-10-20T18:39:21.505Z,179.40
2017-10-20T18:41:51.881Z,159.50
2017-10-20T18:44:21.645Z,183.35
2017-10-20T18:46:51.417Z,197.20
2017-10-20T18:49:21.233Z,175.05
2017-10-20T18:51:50.987Z,198.65
2017-10-20T18:54:20.779Z,162.18
2017-10-20T18:56:50.554Z,185.43
2017-10-20T18:59:20.317Z,170.25
2017-10-20T19:01:50.085Z,174.07
2017-10-20T19:04:19.878Z,181.00
2017-10-20T19:06:49.650Z,180.32
2017-10-20T19:09:19.242Z,175.57
2017-10-20T19:11:49.028Z,174.35
2017-10-20T19:14:18.872Z,156.93
2017-10-20T19:16:48.635Z,145.93
2017-10-20T19:19:18.402Z,166.62
2017-10-20T19:21:48.214Z,154.93
2017-10-20T19:24:17.980Z,194.48
2017-10-20T19:26:47.777Z,188.80
2017-10-20T19:29:17.734Z,183.07
2017-10-20T19:31:48.528Z,199.02
2017-10-20T19:34:18.318Z,199.60
2017-10-20T19:36:48.085Z,177.38
2017-10-20T19:39:21.895Z,178.23
2017-10-20T19:41:51.661Z,173.20
2017-10-20T19:44:21.432Z,195.60
2017-10-20T19:46:51.389Z,160.50
2017-10-20T19:49:21.176Z,142.13
2017-10-20T19:51:50.940Z,156.40
2017-10-20T19:54:20.704Z,139.37
2017-10-20T19:56:50.536Z,134.57
2017-10-20T19:59:20.303Z,133.27
2017-10-20T20:01:50.079Z,123.60
2017-10-20T20:04:19.988Z,139.80
2017-10-20T20:06:49.743Z,164.25
2017-10-20T20:09:19.326Z,147.10
2017-10-20T20:11:48.885Z,185.07
2017-10-20T20:14:18.661Z,171.35
2017-10-20T20:16:48.476Z,163.02
2017-10-20T20:19:17.808Z,156.18
2017-10-20T20:21:47.360Z,145.65
2017-10-20T20:24:16.944Z,177.93
2017-10-20T20:26:46.528Z,158.32
2017-10-20T20:29:16.161Z,156.37
2017-10-20T20:31:45.741Z,163.12
2017-10-20T20:34:15.388Z,155.95
2017-10-20T20:36:44.980Z,162.30
2017-10-20T20:39:14.763Z,127.97
2017-10-20T20:41:44.517Z,161.93
2017-10-20T20:44:14.290Z,143.40
2017-10-20T20:46:44.212Z,141.00
2017-10-20T20:49:13.977Z,125.60
2017-10-20T20:51:43.727Z,120.85
2017-10-20T20:54:13.488Z,147.10
2017-10-20T20:56:43.302Z,147.60
2017-10-20T20:59:13.119Z,168.07
2017-10-20T21:01:42.906Z,148.57
2017-10-20T21:04:16.782Z,158.32
2017-10-20T21:06:46.598Z,141.12
2017-10-20T21:09:16.376Z,142.48
2017-10-20T21:11:46.157Z,152.45
2017-10-20T21:14:15.916Z,146.37
2017-10-20T21:16:45.674Z,155.98
2017-10-20T21:19:15.477Z,152.62
2017-10-20T21:21:45.259Z,117.50
2017-10-20T21:24:15.016Z,124.25
2017-10-20T21:26:44.773Z,123.68
2017-10-20T21:29:14.528Z,128.68
2017-10-20T21:31:44.291Z,110.15
2017-10-20T21:34:13.862Z,130.02
2017-10-20T21:36:43.622Z,101.55
2017-10-20T21:39:13.393Z,118.35
2017-10-20T21:41:43.443Z,131.48
2017-10-20T21:44:13.226Z,141.48
2017-10-20T21:46:42.994Z,136.68
2017-10-20T21:49:12.758Z,141.32
2017-10-20T21:51:42.550Z,129.40
2017-10-20T21:54:12.313Z,121.30
2017-10-20T21:56:42.079Z,127.72
2017-10-20T21:59:11.972Z,138.45
2017-10-20T22:01:41.770Z,116.30
2017-10-20T22:04:11.350Z,105.53
2017-10-20T22:06:41.126Z,114.88
2017-10-20T22:09:10.921Z,102.95
2017-10-20T22:11:40.687Z,99.47
2017-10-20T22:14:10.457Z,102.07
2017-10-20T22:16:40.263Z,113.57
2017-10-20T22:19:09.828Z,94.80
2017-10-20T22:21:39.879Z,108.43
2017-10-20T22:24:09.630Z,104.63
2017-10-20T22:26:39.387Z,117.87
2017-10-20T22:29:09.150Z,102.87
2017-10-20T22:31:38.922Z,106.78
2017-10-20T22:34:08.674Z,95.38
2017-10-20T22:36:38.598Z,89.87
2017-10-20T22:39:08.363Z,105.28
2017-10-20T22:41:38.131Z,106.55
2017-10-20T22:44:07.892Z,85.68
2017-10-20T22:46:37.669Z,96.68
2017-10-20T22:49:07.423Z,94.10
2017-10-20T22:51:36.864Z,95.43
2017-10-20T22:54:06.634Z,94.85
2017-10-20T22:56:36.401Z,80.87
2017-10-20T22:59:06.233Z,99.70
2017-10-20T23:01:36.026Z,89.22
2017-10-20T23:04:05.614Z,81.90
2017-10-20T23:06:35.395Z,83.05
2017-10-20T23:09:04.763Z,74.90
2017-10-20T23:11:34.530Z,81.80
2017-10-20T23:14:04.281Z,81.15
2017-10-20T23:16:38.008Z,81.60
2017-10-20T23:19:07.844Z,89.95
2017-10-20T23:21:37.595Z,82.65
2017-10-20T23:24:07.348Z,90.40
2017-10-20T23:26:37.101Z,92.55
2017-10-20T23:29:06.871Z,94.70
2017-10-20T23:31:36.679Z,97.20
2017-10-20T23:34:06.442Z,79.43
2017-10-20T23:36:36.209Z,89.68
2017-10-20T23:39:05.628Z,92.47
2017-10-20T23:41:35.358Z,88.00
2017-10-20T23:44:05.126Z,71.15
2017-10-20T23:46:34.866Z,70.93
2017-10-20T23:49:04.632Z,77.57
2017-10-20T23:51:34.178Z,84.93
2017-10-20T23:54:03.756Z,78.75
2017-10-20T23:56:33.503Z,79.55
2017-10-20T23:59:03.265Z,74.25
